createdAt,value
2022-09-26T00:01:33.307Z,18.72
2022-09-26T00:04:04.283Z,16.82
2022-09-26T00:06:31.147Z,16.91
2022-09-26T00:08:59.044Z,18.66
2022-09-26T00:11:30.491Z,16.92
2022-09-26T00:14:00.682Z,17.16
2022-09-26T00:16:27.760Z,16.30
2022-09-26T00:18:57.235Z,19.18
2022-09-26T00:21:25.598Z,16.27
2022-09-26T00:23:53.362Z,16.37
2022-09-26T00:26:21.860Z,17.11
2022-09-26T00:28:48.915Z,16.96
2022-09-26T00:31:20.413Z,16.85
2022-09-26T00:33:47.218Z,17.65
2022-09-26T00:36:14.526Z,16.82
2022-09-26T00:38:41.617Z,18.32
2022-09-26T00:41:09.558Z,19.48
2022-09-26T00:43:42.445Z,15.89
2022-09-26T00:46:27.514Z,15.62
2022-09-26T00:49:16.071Z,15.71
2022-09-26T00:51:47.801Z,18.37
2022-09-26T00:54:17.607Z,16.70
2022-09-26T00:56:47.291Z,16.41
2022-09-26T00:59:37.160Z,17.12
2022-09-26T01:02:05.281Z,16.33
2022-09-26T01:04:35.614Z,19.06
2022-09-26T01:07:07.406Z,18.86
2022-09-26T01:09:34.234Z,18.35
2022-09-26T01:12:03.438Z,18.01
2022-09-26T01:14:31.691Z,18.60
2022-09-26T01:16:58.784Z,17.80
2022-09-26T01:19:36.309Z,18.93
2022-09-26T01:22:21.173Z,17.68
2022-09-26T01:24:50.859Z,17.88
2022-09-26T01:27:27.566Z,19.30
2022-09-26T01:30:28.609Z,16.23
2022-09-26T01:33:10.505Z,17.47
2022-09-26T01:35:43.410Z,18.00
2022-09-26T01:38:16.165Z,16.14
2022-09-26T01:41:02.058Z,17.13
2022-09-26T01:43:41.625Z,17.54
2022-09-26T01:46:25.702Z,16.82
2022-09-26T01:49:03.446Z,19.43
2022-09-26T01:51:37.320Z,19.16
2022-09-26T01:54:13.916Z,18.53
2022-09-26T01:56:43.435Z,17.12
2022-09-26T01:59:24.026Z,19.65
2022-09-26T02:02:00.692Z,19.05
2022-09-26T02:04:35.646Z,17.16
2022-09-26T02:07:20.823Z,17.78
2022-09-26T02:09:59.375Z,18.44
2022-09-26T02:12:36.700Z,18.69
2022-09-26T02:15:08.194Z,16.32
2022-09-26T02:17:46.478Z,19.12
2022-09-26T02:20:23.197Z,18.52
2022-09-26T02:22:50.230Z,15.65
2022-09-26T02:25:17.133Z,15.65
2022-09-26T02:27:44.232Z,17.69
2022-09-26T02:30:12.347Z,18.10
2022-09-26T02:32:40.536Z,18.57
2022-09-26T02:35:26.979Z,17.76
2022-09-26T02:37:54.231Z,18.25
2022-09-26T02:40:33.389Z,15.08
2022-09-26T02:43:26.957Z,18.18
2022-09-26T02:46:21.734Z,17.21
2022-09-26T02:48:56.662Z,16.84
2022-09-26T02:51:53.397Z,18.60
2022-09-26T02:54:43.822Z,16.26
2022-09-26T02:57:42.686Z,18.84
2022-09-26T03:00:51.417Z,18.04
2022-09-26T03:03:24.351Z,16.03
2022-09-26T03:05:57.040Z,16.75
2022-09-26T03:08:27.363Z,15.70
2022-09-26T03:10:57.135Z,18.25
2022-09-26T03:13:26.902Z,18.98
2022-09-26T03:15:58.606Z,18.46
2022-09-26T03:18:35.482Z,15.90
2022-09-26T03:21:02.526Z,17.04
2022-09-26T03:23:29.766Z,15.95
2022-09-26T03:26:04.666Z,17.64
2022-09-26T03:28:37.425Z,17.96
2022-09-26T03:31:05.250Z,18.75
2022-09-26T03:33:43.150Z,15.81
2022-09-26T03:36:09.893Z,15.81
2022-09-26T03:38:37.483Z,15.38
2022-09-26T03:41:13.199Z,18.16
2022-09-26T03:44:04.608Z,17.44
2022-09-26T03:46:52.309Z,16.02
2022-09-26T03:49:19.027Z,17.60
2022-09-26T03:51:46.243Z,19.06
2022-09-26T03:54:13.517Z,15.60
2022-09-26T03:56:41.385Z,18.08
2022-09-26T03:59:09.218Z,17.85
2022-09-26T04:01:36.662Z,18.11
2022-09-26T04:04:03.513Z,16.82
2022-09-26T04:06:30.481Z,17.52
2022-09-26T04:08:59.348Z,17.30
2022-09-26T04:11:27.557Z,19.15
2022-09-26T04:13:55.406Z,16.02
2022-09-26T04:16:27.390Z,19.38
2022-09-26T04:19:03.282Z,16.51
2022-09-26T04:21:30.144Z,19.08
2022-09-26T04:23:59.116Z,18.60
2022-09-26T04:26:25.870Z,18.08
2022-09-26T04:28:55.919Z,14.82
2022-09-26T04:31:28.598Z,18.85
2022-09-26T04:34:05.098Z,17.79
2022-09-26T04:36:32.713Z,20.17
2022-09-26T04:39:00.774Z,18.15
2022-09-26T04:41:29.414Z,17.80
2022-09-26T04:43:57.911Z,17.91
2022-09-26T04:46:30.764Z,19.23
2022-09-26T04:49:01.023Z,18.79
2022-09-26T04:51:29.681Z,17.05
2022-09-26T04:53:56.451Z,19.69
2022-09-26T04:56:28.170Z,15.12
2022-09-26T04:58:56.973Z,16.49
2022-09-26T05:01:27.053Z,18.01
2022-09-26T05:04:07.277Z,17.26
2022-09-26T05:06:34.242Z,17.23
2022-09-26T05:09:04.272Z,16.25
2022-09-26T05:11:50.057Z,17.74
2022-09-26T05:14:17.365Z,17.63
2022-09-26T05:16:45.200Z,16.65
2022-09-26T05:19:14.525Z,17.41
2022-09-26T05:22:16.518Z,19.50
2022-09-26T05:25:02.013Z,19.03
2022-09-26T05:27:28.871Z,17.06
2022-09-26T05:29:56.465Z,18.90
2022-09-26T05:32:24.035Z,19.25
2022-09-26T05:34:51.971Z,19.29
2022-09-26T05:37:21.023Z,17.97
2022-09-26T05:40:07.152Z,19.50
2022-09-26T05:42:38.229Z,19.06
2022-09-26T05:45:05.815Z,20.18
2022-09-26T05:47:36.731Z,17.82
2022-09-26T05:50:09.973Z,18.42
2022-09-26T05:52:39.370Z,19.24
2022-09-26T05:55:07.505Z,19.56
2022-09-26T05:58:01.482Z,19.21
2022-09-26T06:00:48.712Z,17.54
2022-09-26T06:03:16.530Z,18.99
2022-09-26T06:05:54.005Z,16.54
2022-09-26T06:08:28.539Z,17.37
2022-09-26T06:11:16.524Z,18.15
2022-09-26T06:13:45.903Z,14.68
2022-09-26T06:16:19.386Z,17.64
2022-09-26T06:18:49.232Z,18.82
2022-09-26T06:21:17.929Z,18.67
2022-09-26T06:23:46.933Z,19.12
2022-09-26T06:26:25.386Z,17.77
2022-09-26T06:28:59.403Z,18.90
2022-09-26T06:31:28.783Z,18.07
2022-09-26T06:34:13.072Z,18.73
2022-09-26T06:36:49.104Z,17.24
2022-09-26T06:39:16.052Z,19.17
2022-09-26T06:41:44.713Z,17.99
2022-09-26T06:44:37.698Z,19.86
2022-09-26T06:47:30.002Z,18.05
2022-09-26T06:50:27.170Z,16.53
2022-09-26T06:52:57.087Z,19.15
2022-09-26T06:55:25.013Z,18.32
2022-09-26T06:57:54.074Z,19.70
2022-09-26T07:00:24.737Z,19.75
2022-09-26T07:03:17.955Z,19.27
2022-09-26T07:05:56.774Z,18.79
2022-09-26T07:08:43.393Z,19.45
2022-09-26T07:11:41.594Z,20.59
2022-09-26T07:14:02.182Z,18.52
2022-09-26T07:16:30.518Z,19.96
2022-09-26T07:19:18.709Z,20.09
2022-09-26T07:22:01.119Z,19.95
2022-09-26T07:24:35.055Z,20.15
2022-09-26T07:27:03.241Z,20.22
2022-09-26T07:29:30.135Z,21.42
2022-09-26T07:31:57.061Z,20.29
2022-09-26T07:34:45.185Z,19.97
2022-09-26T07:37:13.487Z,20.38
2022-09-26T07:39:40.227Z,21.03
2022-09-26T07:42:07.361Z,20.39
2022-09-26T07:45:17.500Z,20.14
2022-09-26T07:47:40.802Z,18.56
2022-09-26T07:50:23.583Z,19.82
2022-09-26T07:53:04.894Z,19.82
2022-09-26T07:55:31.649Z,21.15
2022-09-26T07:58:18.568Z,20.28
2022-09-26T08:00:45.477Z,19.48
2022-09-26T08:03:28.634Z,20.29
2022-09-26T08:06:00.639Z,20.78
2022-09-26T08:08:30.521Z,19.37
2022-09-26T08:11:03.941Z,20.80
2022-09-26T08:13:51.451Z,22.41
2022-09-26T08:16:39.645Z,20.08
2022-09-26T08:19:07.944Z,21.00
2022-09-26T08:21:35.377Z,20.19
2022-09-26T08:24:02.544Z,20.34
2022-09-26T08:26:32.063Z,16.89
2022-09-26T08:29:12.610Z,21.65
2022-09-26T08:31:40.246Z,19.74
2022-09-26T08:34:08.799Z,20.20
2022-09-26T08:36:37.118Z,19.79
2022-09-26T08:39:36.259Z,17.49
2022-09-26T08:43:02.725Z,21.45
2022-09-26T08:46:37.527Z,23.51
2022-09-26T08:49:30.114Z,23.31
2022-09-26T08:52:01.646Z,21.35
2022-09-26T08:54:42.394Z,19.76
2022-09-26T08:57:21.106Z,21.52
2022-09-26T08:59:50.334Z,22.49
2022-09-26T09:02:19.329Z,20.40
2022-09-26T09:05:11.471Z,22.85
2022-09-26T09:07:42.275Z,20.30
2022-09-26T09:10:17.998Z,20.36
2022-09-26T09:13:34.341Z,19.63
2022-09-26T09:16:38.112Z,20.61
2022-09-26T09:19:21.410Z,21.74
2022-09-26T09:22:49.807Z,19.01
2022-09-26T09:25:56.319Z,22.29
2022-09-26T09:28:26.043Z,20.89
2022-09-26T09:31:02.298Z,21.30
2022-09-26T09:33:52.416Z,20.66
2022-09-26T09:36:32.279Z,19.54
2022-09-26T09:39:29.345Z,18.66
2022-09-26T09:42:19.493Z,19.37
2022-09-26T09:44:55.518Z,21.82
2022-09-26T09:47:22.330Z,24.53
2022-09-26T09:49:50.541Z,21.71
2022-09-26T09:52:36.183Z,22.17
2022-09-26T09:55:10.176Z,24.66
2022-09-26T09:57:46.739Z,26.72
2022-09-26T10:00:24.071Z,23.50
2022-09-26T10:03:25.034Z,23.26
2022-09-26T10:05:58.412Z,23.96
2022-09-26T10:08:42.847Z,22.20
2022-09-26T10:11:41.506Z,25.67
2022-09-26T10:14:36.019Z,23.64
2022-09-26T10:17:12.094Z,22.48
2022-09-26T10:20:01.952Z,20.91
2022-09-26T10:22:37.619Z,22.72
2022-09-26T10:25:15.594Z,21.31
2022-09-26T10:27:50.177Z,23.36
2022-09-26T10:30:20.127Z,26.06
2022-09-26T10:32:56.406Z,21.48
2022-09-26T10:35:44.388Z,23.39
2022-09-26T10:38:24.218Z,23.32
2022-09-26T10:41:02.294Z,23.46
2022-09-26T10:43:35.441Z,21.36
2022-09-26T10:46:24.925Z,20.23
2022-09-26T10:49:15.038Z,19.67
2022-09-26T10:52:29.923Z,20.56
2022-09-26T10:55:06.316Z,20.98
2022-09-26T10:57:45.301Z,18.84
2022-09-26T11:00:40.301Z,17.53
2022-09-26T11:03:17.755Z,16.07
2022-09-26T11:06:28.774Z,18.28
2022-09-26T11:09:04.662Z,18.89
2022-09-26T11:11:51.512Z,19.77
2022-09-26T11:14:29.139Z,19.56
2022-09-26T11:17:23.015Z,21.38
2022-09-26T11:20:00.393Z,21.70
2022-09-26T11:22:51.837Z,19.53
2022-09-26T11:25:31.546Z,19.96
2022-09-26T11:28:07.183Z,20.14
2022-09-26T11:31:01.796Z,19.16
2022-09-26T11:33:32.524Z,21.75
2022-09-26T11:36:36.118Z,23.40
2022-09-26T11:39:27.817Z,21.62
2022-09-26T11:42:06.815Z,21.51
2022-09-26T11:44:54.293Z,23.16
2022-09-26T11:47:52.883Z,22.20
2022-09-26T11:50:39.680Z,22.65
2022-09-26T11:53:26.658Z,22.71
2022-09-26T11:56:08.156Z,22.96
2022-09-26T11:58:53.558Z,23.27
2022-09-26T12:01:38.801Z,20.31
2022-09-26T12:04:29.070Z,22.49
2022-09-26T12:07:16.418Z,23.41
2022-09-26T12:10:13.993Z,22.35
2022-09-26T12:13:19.802Z,22.70
2022-09-26T12:15:55.156Z,23.43
2022-09-26T12:18:40.241Z,21.56
2022-09-26T12:21:31.741Z,25.81
2022-09-26T12:24:14.169Z,22.37
2022-09-26T12:27:08.911Z,23.29
2022-09-26T12:30:00.652Z,23.66
2022-09-26T12:33:06.060Z,21.09
2022-09-26T12:35:43.838Z,23.69
2022-09-26T12:38:26.009Z,22.10
2022-09-26T12:41:03.047Z,24.01
2022-09-26T12:43:44.898Z,23.83
2022-09-26T12:46:33.577Z,20.29
2022-09-26T12:49:03.655Z,23.17
2022-09-26T12:51:49.646Z,22.77
2022-09-26T12:54:41.013Z,22.80
2022-09-26T12:57:17.327Z,24.03
2022-09-26T13:00:10.029Z,23.30
2022-09-26T13:02:39.818Z,22.97
2022-09-26T13:05:22.594Z,23.08
2022-09-26T13:08:19.770Z,25.73
2022-09-26T13:11:15.704Z,22.58
2022-09-26T13:14:18.512Z,22.44
2022-09-26T13:17:06.456Z,22.49
2022-09-26T13:19:40.824Z,25.05
2022-09-26T13:22:29.431Z,24.03
2022-09-26T13:25:10.989Z,23.80
2022-09-26T13:27:44.179Z,24.67
2022-09-26T13:30:26.352Z,24.43
2022-09-26T13:33:03.573Z,23.99
2022-09-26T13:35:35.911Z,21.25
2022-09-26T13:38:22.181Z,24.35
2022-09-26T13:41:20.928Z,20.77
2022-09-26T13:44:09.168Z,21.56
2022-09-26T13:47:13.404Z,22.42
2022-09-26T13:49:51.972Z,21.98
2022-09-26T13:52:52.594Z,23.03
2022-09-26T13:55:21.974Z,24.43
2022-09-26T13:58:07.506Z,21.37
2022-09-26T14:00:40.584Z,22.27
2022-09-26T14:03:09.907Z,21.80
2022-09-26T14:05:43.434Z,21.51
2022-09-26T14:08:44.091Z,22.41
2022-09-26T14:11:19.921Z,22.65
2022-09-26T14:13:48.533Z,22.81
2022-09-26T14:16:27.079Z,21.27
2022-09-26T14:19:29.292Z,23.08
2022-09-26T14:22:20.965Z,23.24
2022-09-26T14:24:48.881Z,22.88
2022-09-26T14:27:15.531Z,23.30
2022-09-26T14:29:45.015Z,21.79
2022-09-26T14:32:16.296Z,20.66
2022-09-26T14:34:56.779Z,21.44
2022-09-26T14:37:24.220Z,22.40
2022-09-26T14:40:03.532Z,20.95
2022-09-26T14:42:42.130Z,21.63
2022-09-26T14:45:22.947Z,21.63
2022-09-26T14:48:01.621Z,24.11
2022-09-26T14:50:34.460Z,22.54
2022-09-26T14:53:24.042Z,21.35
2022-09-26T14:55:55.711Z,21.79
2022-09-26T14:58:37.682Z,22.69
2022-09-26T15:01:18.915Z,21.03
2022-09-26T15:04:03.104Z,22.69
2022-09-26T15:06:36.275Z,22.66
2022-09-26T15:09:10.482Z,23.20
2022-09-26T15:11:51.641Z,23.41
2022-09-26T15:14:55.475Z,21.02
2022-09-26T15:17:32.786Z,21.81
2022-09-26T15:20:02.686Z,20.60
2022-09-26T15:22:31.120Z,22.93
2022-09-26T15:25:13.904Z,23.27
2022-09-26T15:27:46.099Z,22.72
2022-09-26T15:30:19.898Z,23.82
2022-09-26T15:32:50.405Z,23.13
2022-09-26T15:35:17.848Z,22.77
2022-09-26T15:37:45.972Z,23.54
2022-09-26T15:40:22.973Z,23.73
2022-09-26T15:43:06.154Z,21.16
2022-09-26T15:45:55.498Z,22.92
2022-09-26T15:48:25.391Z,23.94
2022-09-26T15:51:08.998Z,23.67
2022-09-26T15:53:41.926Z,23.30
2022-09-26T15:56:14.374Z,21.63
2022-09-26T15:59:00.917Z,23.50
2022-09-26T16:01:32.021Z,21.83
2022-09-26T16:04:03.083Z,23.22
2022-09-26T16:06:37.091Z,22.71
2022-09-26T16:09:22.224Z,21.52
2022-09-26T16:11:54.428Z,22.59
2022-09-26T16:14:26.914Z,22.00
2022-09-26T16:17:21.718Z,21.47
2022-09-26T16:19:58.279Z,22.78
2022-09-26T16:22:40.566Z,23.59
2022-09-26T16:25:19.476Z,22.24
2022-09-26T16:27:58.789Z,22.74
2022-09-26T16:30:27.215Z,21.17
2022-09-26T16:33:24.748Z,22.99
2022-09-26T16:35:51.793Z,22.29
2022-09-26T16:38:23.285Z,21.90
2022-09-26T16:40:52.657Z,21.53
2022-09-26T16:43:27.354Z,21.45
2022-09-26T16:46:14.004Z,21.72
2022-09-26T16:48:53.009Z,22.11
2022-09-26T16:52:09.891Z,21.64
2022-09-26T16:54:37.051Z,21.05
2022-09-26T16:57:05.857Z,21.25
2022-09-26T16:59:32.625Z,21.37
2022-09-26T17:02:02.510Z,21.55
2022-09-26T17:04:31.580Z,21.92
2022-09-26T17:06:59.777Z,21.52
2022-09-26T17:09:29.930Z,20.98
2022-09-26T17:12:01.686Z,20.34
2022-09-26T17:14:40.632Z,21.07
2022-09-26T17:17:16.163Z,20.38
2022-09-26T17:19:45.287Z,20.11
2022-09-26T17:22:18.629Z,19.74
2022-09-26T17:24:47.945Z,19.48
2022-09-26T17:27:22.841Z,18.99
2022-09-26T17:29:51.912Z,19.97
2022-09-26T17:32:28.557Z,19.48
2022-09-26T17:35:21.895Z,18.90
2022-09-26T17:37:48.966Z,20.27
2022-09-26T17:40:24.379Z,20.37
2022-09-26T17:42:58.114Z,20.59
2022-09-26T17:45:31.252Z,20.64
2022-09-26T17:48:04.458Z,20.54
2022-09-26T17:50:33.461Z,19.86
2022-09-26T17:53:02.258Z,21.02
2022-09-26T17:55:30.990Z,21.14
2022-09-26T17:57:58.501Z,20.73
2022-09-26T18:00:30.089Z,19.01
2022-09-26T18:03:01.510Z,20.09
2022-09-26T18:05:37.875Z,18.76
2022-09-26T18:08:13.020Z,19.57
2022-09-26T18:10:44.786Z,19.01
2022-09-26T18:13:15.455Z,18.75
2022-09-26T18:15:42.391Z,20.13
2022-09-26T18:18:16.364Z,19.47
2022-09-26T18:20:44.202Z,19.91
2022-09-26T18:23:16.412Z,20.72
2022-09-26T18:25:47.257Z,20.00
2022-09-26T18:28:16.805Z,19.24
2022-09-26T18:30:48.290Z,20.26
2022-09-26T18:33:16.765Z,19.85
2022-09-26T18:35:45.473Z,20.24
2022-09-26T18:38:15.511Z,21.15
2022-09-26T18:40:51.752Z,20.64
2022-09-26T18:43:24.016Z,19.53
2022-09-26T18:45:50.984Z,18.91
2022-09-26T18:48:25.378Z,18.47
2022-09-26T18:50:53.585Z,19.08
2022-09-26T18:53:23.337Z,18.95
2022-09-26T18:56:08.831Z,19.17
2022-09-26T18:58:36.013Z,20.24
2022-09-26T19:01:06.982Z,19.25
2022-09-26T19:03:38.015Z,18.69
2022-09-26T19:06:11.863Z,19.75
2022-09-26T19:08:41.730Z,18.73
2022-09-26T19:11:14.705Z,19.14
2022-09-26T19:13:46.319Z,19.10
2022-09-26T19:16:13.781Z,18.01
2022-09-26T19:18:41.213Z,19.26
2022-09-26T19:21:34.360Z,19.18
2022-09-26T19:24:29.188Z,17.68
2022-09-26T19:27:03.601Z,18.42
2022-09-26T19:29:38.771Z,19.87
2022-09-26T19:32:07.085Z,19.40
2022-09-26T19:34:34.084Z,17.66
2022-09-26T19:37:03.056Z,18.93
2022-09-26T19:39:30.234Z,18.11
2022-09-26T19:41:56.940Z,19.09
2022-09-26T19:44:24.443Z,17.58
2022-09-26T19:46:51.409Z,16.75
2022-09-26T19:49:19.899Z,18.90
2022-09-26T19:51:47.268Z,19.19
2022-09-26T19:54:17.672Z,19.18
2022-09-26T19:56:45.711Z,19.37
2022-09-26T19:59:14.070Z,18.42
2022-09-26T20:01:42.502Z,17.85
2022-09-26T20:04:19.272Z,18.79
2022-09-26T20:06:46.918Z,17.77
2022-09-26T20:09:16.942Z,17.38
2022-09-26T20:11:44.343Z,19.13
2022-09-26T20:14:26.542Z,19.31
2022-09-26T20:16:56.907Z,19.83
2022-09-26T20:19:36.521Z,18.20
2022-09-26T20:22:07.499Z,18.67
2022-09-26T20:24:38.179Z,18.43
2022-09-26T20:27:08.414Z,18.07
2022-09-26T20:29:55.533Z,17.96
2022-09-26T20:32:22.615Z,18.82
2022-09-26T20:34:49.562Z,18.17
2022-09-26T20:37:17.270Z,18.48
2022-09-26T20:39:44.366Z,17.82
2022-09-26T20:42:16.563Z,19.17
2022-09-26T20:44:44.865Z,18.17
2022-09-26T20:47:19.769Z,18.46
2022-09-26T20:49:53.983Z,19.29
2022-09-26T20:52:26.789Z,18.62
2022-09-26T20:54:55.290Z,19.21
2022-09-26T20:57:24.126Z,18.55
2022-09-26T20:59:51.364Z,17.78
2022-09-26T21:02:35.938Z,18.68
2022-09-26T21:05:03.575Z,18.97
2022-09-26T21:07:32.199Z,18.31
2022-09-26T21:09:59.081Z,18.36
2022-09-26T21:12:25.953Z,18.59
2022-09-26T21:14:52.897Z,18.66
2022-09-26T21:17:28.123Z,19.17
2022-09-26T21:19:56.017Z,17.61
2022-09-26T21:23:01.310Z,16.82
2022-09-26T21:25:31.063Z,19.19
2022-09-26T21:28:06.146Z,18.83
2022-09-26T21:30:34.058Z,18.60
2022-09-26T21:33:01.019Z,17.81
2022-09-26T21:35:30.984Z,19.00
2022-09-26T21:38:00.330Z,18.98
2022-09-26T21:40:29.878Z,20.18
2022-09-26T21:43:03.507Z,19.48
2022-09-26T21:45:30.285Z,20.21
2022-09-26T21:47:58.082Z,19.72
2022-09-26T21:50:29.643Z,18.95
2022-09-26T21:53:04.548Z,19.34
2022-09-26T21:55:38.730Z,19.62
2022-09-26T21:58:12.916Z,19.71
2022-09-26T22:00:40.408Z,19.89
2022-09-26T22:03:07.433Z,19.80
2022-09-26T22:05:34.204Z,19.24
2022-09-26T22:08:01.887Z,20.31
2022-09-26T22:10:29.409Z,18.70
2022-09-26T22:12:56.404Z,18.56
2022-09-26T22:15:23.334Z,18.75
2022-09-26T22:17:50.207Z,18.58
2022-09-26T22:20:17.216Z,18.38
2022-09-26T22:22:44.047Z,18.73
2022-09-26T22:25:10.875Z,18.18
2022-09-26T22:27:38.524Z,19.30
2022-09-26T22:30:06.585Z,18.73
2022-09-26T22:32:33.621Z,19.87
2022-09-26T22:35:00.395Z,20.04
2022-09-26T22:37:27.135Z,18.87
2022-09-26T22:39:54.316Z,19.63
2022-09-26T22:42:21.260Z,17.80
2022-09-26T22:44:48.056Z,18.99
2022-09-26T22:47:14.808Z,19.77
2022-09-26T22:49:41.698Z,19.03
2022-09-26T22:52:08.681Z,19.02
2022-09-26T22:54:35.470Z,18.99
2022-09-26T22:57:02.229Z,18.86
2022-09-26T22:59:28.979Z,19.16
2022-09-26T23:01:58.849Z,18.87
2022-09-26T23:04:45.878Z,18.29
2022-09-26T23:07:14.286Z,18.27
2022-09-26T23:09:41.097Z,19.11
2022-09-26T23:12:07.970Z,19.81
2022-09-26T23:14:34.753Z,18.31
2022-09-26T23:17:02.142Z,19.38
2022-09-26T23:19:28.999Z,18.33
2022-09-26T23:21:57.631Z,18.65
2022-09-26T23:24:24.926Z,18.84
2022-09-26T23:26:51.696Z,17.24
2022-09-26T23:29:18.554Z,18.99
2022-09-26T23:31:45.705Z,18.45
2022-09-26T23:34:12.519Z,19.17
2022-09-26T23:36:39.439Z,19.18
2022-09-26T23:39:06.432Z,18.60
2022-09-26T23:41:33.171Z,18.09
2022-09-26T23:44:00.024Z,19.06
2022-09-26T23:46:27.182Z,17.69
2022-09-26T23:48:54.574Z,19.03
2022-09-26T23:51:21.614Z,18.96
2022-09-26T23:53:48.786Z,19.33
2022-09-26T23:56:15.677Z,19.24
2022-09-26T23:58:42.926Z,17.74
